Stella Lucy — 9V2548 — position and weather

sailwx.info

Track history (hours):
 
Tides and Currents Weather Stations Pressure Air Temp Water Temp Dewpoint Dewpoint Depression Visibility Wind Speed Wind Dir Waves Ship Positions

Stella Lucy

Last reported at 2017-Dec-10 12:45 UTC. Time now 2017-Dec-13 09:25 UTC.
Position N 01°16' E 104°04'.

Length 295 m; draft 15.2 m.

Type: Cargo ship. MMSI: 563312000.

Date/timePositionNaut miles runAvg speedWind from/ knotsBaromVisibWave heightAir tempDewpointWater temp
2017-Dec-10 12:45N 01°16' E 104°04'5 7.4
2017-Dec-10 12:05N 01°17' E 103°59'0 2.5
2017-Dec-10 11:59N 01°17' E 103°59'0 0.1
2017-Dec-10 09:46N 01°17' E 103°59'0 0.0
2017-Dec-09 21:40N 01°17' E 103°59'0 3.0
2017-Dec-09 21:30N 01°16' E 103°59'2 3.9
2017-Dec-09 21:00N 01°15' E 103°57'2 3.0
2017-Dec-09 20:30N 01°14' E 103°57'3 5.2
2017-Dec-09 20:01N 01°13' E 103°55'3 6.0
2017-Dec-09 19:30N 01°12' E 103°52'3 6.7
2017-Dec-09 19:00N 01°10' E 103°49'3 5.9
2017-Dec-09 18:31N 01°09' E 103°46'3 6.0
2017-Dec-09 18:00N 01°06' E 103°44'4 8.5
2017-Dec-09 17:31N 01°04' E 103°41'4 7.3
2017-Dec-09 16:59N 01°04' E 103°37'4 8.6
2017-Dec-09 16:30N 01°06' E 103°34'4 8.4
2017-Dec-09 16:01N 01°08' E 103°30'4 8.4
2017-Dec-09 15:30N 01°10' E 103°27'4 8.0
2017-Dec-09 15:01N 01°12' E 103°23'4 8.2
2017-Dec-09 14:30N 01°15' E 103°20'  
Track history (hours):
 
Tides and Currents Weather Stations Pressure Air Temp Water Temp Dewpoint Dewpoint Depression Visibility Wind Speed Wind Dir Waves Ship Positions

Stella Lucy

Last reported at 2017-Dec-10 12:45 UTC. Time now 2017-Dec-13 09:25 UTC.
Position N 01°16' E 104°04'.

Length 295 m; draft 15.2 m.

Type: Cargo ship. MMSI: 563312000.

Date/timePositionNaut miles runAvg speedWind from/ knotsBaromVisibWave heightAir tempDewpointWater temp
2017-Dec-10 12:45N 01°16' E 104°04'5 7.4
2017-Dec-10 12:05N 01°17' E 103°59'0 2.5
2017-Dec-10 11:59N 01°17' E 103°59'0 0.1
2017-Dec-10 09:46N 01°17' E 103°59'0 0.0
2017-Dec-09 21:40N 01°17' E 103°59'0 3.0
2017-Dec-09 21:30N 01°16' E 103°59'2 3.9
2017-Dec-09 21:00N 01°15' E 103°57'2 3.0
2017-Dec-09 20:30N 01°14' E 103°57'3 5.2
2017-Dec-09 20:01N 01°13' E 103°55'3 6.0
2017-Dec-09 19:30N 01°12' E 103°52'3 6.7
2017-Dec-09 19:00N 01°10' E 103°49'3 5.9
2017-Dec-09 18:31N 01°09' E 103°46'3 6.0
2017-Dec-09 18:00N 01°06' E 103°44'4 8.5
2017-Dec-09 17:31N 01°04' E 103°41'4 7.3
2017-Dec-09 16:59N 01°04' E 103°37'4 8.6
2017-Dec-09 16:30N 01°06' E 103°34'4 8.4
2017-Dec-09 16:01N 01°08' E 103°30'4 8.4
2017-Dec-09 15:30N 01°10' E 103°27'4 8.0
2017-Dec-09 15:01N 01°12' E 103°23'4 8.2
2017-Dec-09 14:30N 01°15' E 103°20'  

Dump ship's entire track history